Time;durP1;ratioP1;P1;durP2;ratioP2;P2;SDS_P1;SDS_P2;PMS_P1;PMS_P2;Temp;Humidity;BMP_temperature;BMP_pressure;BME280_temperature;BME280_humidity;BME280_pressure;Samples;Min_cycle;Max_cycle;Signal;HPM_P1;HPM_P2
2021/01/11 00:19:00;;;;;;;4.47;2.20;;;9.00;99.90;;;;;;5030974;28;20287;-96
2021/01/11 00:21:31;;;;;;;2.27;2.07;;;8.90;99.90;;;;;;5025912;28;20226;-93
2021/01/11 00:24:04;;;;;;;4.17;2.20;;;8.90;99.90;;;;;;5023676;28;20190;-95
2021/01/11 00:26:37;;;;;;;6.20;2.40;;;8.90;99.90;;;;;;5025739;28;20232;-93
2021/01/11 00:29:08;;;;;;;3.90;2.40;;;8.80;99.90;;;;;;5016940;28;20304;-94
2021/01/11 00:31:39;;;;;;;4.50;2.37;;;8.80;99.90;;;;;;5087663;23;20242;-92
2021/01/11 00:34:11;;;;;;;3.40;2.30;;;8.80;99.90;;;;;;5012105;28;20206;-93
2021/01/11 00:36:42;;;;;;;3.97;2.73;;;8.70;99.90;;;;;;5014020;28;20353;-93
2021/01/11 00:39:13;;;;;;;3.67;2.67;;;8.80;99.90;;;;;;5005262;28;20214;-92
2021/01/11 00:41:44;;;;;;;6.07;2.43;;;8.70;99.90;;;;;;5012579;28;20658;-92
2021/01/11 00:44:20;;;;;;;4.03;2.80;;;8.70;99.90;;;;;;5008964;28;20210;-92
2021/01/11 00:46:51;;;;;;;3.30;2.70;;;8.60;99.90;;;;;;5017349;28;20213;-92
2021/01/11 00:49:23;;;;;;;4.13;2.43;;;8.60;99.90;;;;;;5009275;28;20660;-92
2021/01/11 00:51:54;;;;;;;4.10;2.90;;;8.50;99.90;;;;;;5004187;28;20359;-92
2021/01/11 00:54:25;;;;;;;3.33;2.60;;;8.50;99.90;;;;;;5008943;28;20217;-93
2021/01/11 00:56:56;;;;;;;4.50;2.83;;;8.40;99.90;;;;;;5011953;28;20731;-90
2021/01/11 00:59:27;;;;;;;7.50;3.00;;;8.30;99.90;;;;;;4997902;28;20256;-92
2021/01/11 01:01:58;;;;;;;3.50;2.57;;;8.20;99.90;;;;;;5017573;28;20217;-92
2021/01/11 01:04:30;;;;;;;5.37;3.27;;;8.10;99.90;;;;;;5010235;28;20248;-91
2021/01/11 01:07:03;;;;;;;6.77;3.07;;;8.10;99.90;;;;;;5013464;28;20233;-91
2021/01/11 01:09:34;;;;;;;5.90;3.23;;;8.00;99.90;;;;;;5015377;28;20283;-91
2021/01/11 01:12:07;;;;;;;3.67;3.00;;;7.90;99.90;;;;;;5016251;28;20264;-92
2021/01/11 01:14:38;;;;;;;4.43;3.00;;;7.80;99.90;;;;;;5005901;28;20225;-92
2021/01/11 01:17:10;;;;;;;3.77;2.80;;;7.80;99.90;;;;;;5005685;28;20261;-92
2021/01/11 01:19:45;;;;;;;6.27;3.30;;;7.70;99.90;;;;;;5014700;28;20214;-91
2021/01/11 01:22:15;;;;;;;4.70;3.37;;;7.70;99.90;;;;;;5012201;28;20205;-90
2021/01/11 01:24:46;;;;;;;5.33;3.13;;;7.60;99.90;;;;;;5023985;28;20685;-91
2021/01/11 01:27:17;;;;;;;4.63;3.50;;;7.60;99.90;;;;;;5010895;28;20240;-92
2021/01/11 01:29:48;;;;;;;4.80;3.37;;;7.60;99.90;;;;;;5015180;28;20257;-93
2021/01/11 01:32:20;;;;;;;3.70;2.90;;;7.60;99.90;;;;;;4997078;28;20212;-92
2021/01/11 01:34:52;;;;;;;4.33;2.57;;;7.60;99.90;;;;;;5020962;28;20217;-93
2021/01/11 01:37:22;;;;;;;3.77;2.73;;;7.60;99.90;;;;;;5012139;28;20205;-93
2021/01/11 01:39:54;;;;;;;4.20;2.80;;;7.70;99.90;;;;;;5015706;28;20202;-93
2021/01/11 01:42:25;;;;;;;5.40;2.90;;;7.70;99.90;;;;;;5015454;28;20208;-92
2021/01/11 01:44:55;;;;;;;3.33;2.30;;;7.70;99.90;;;;;;5025316;28;20636;-92
2021/01/11 01:47:27;;;;;;;3.73;2.80;;;7.70;99.90;;;;;;5018188;28;20212;-91
2021/01/11 01:49:59;;;;;;;4.37;2.63;;;7.70;99.90;;;;;;5013648;28;20224;-92
2021/01/11 01:52:30;;;;;;;3.97;2.70;;;7.80;99.90;;;;;;5295486;23;20240;-95
2021/01/11 02:00:19;;;;;;;3.10;2.27;;;7.80;99.90;;;;;;5743720;23;20242;-96
2021/01/11 02:05:29;;;;;;;4.50;2.33;;;7.90;99.90;;;;;;5433646;23;20255;-96
2021/01/11 02:13:45;;;;;;;5.07;3.43;;;7.80;99.90;;;;;;5204400;23;20309;-96
2021/01/11 02:16:26;;;;;;;6.23;4.83;;;7.90;99.90;;;;;;5011460;28;20218;-96
2021/01/11 02:27:54;;;;;;;7.90;5.20;;;8.00;99.90;;;;;;5018111;28;20235;-96
2021/01/11 02:52:12;;;;;;;7.77;4.37;;;7.80;99.90;;;;;;5005632;26;20258;-92
2021/01/11 03:21:38;;;;;;;48.67;16.17;;;7.50;99.90;;;;;;5025151;28;20225;-92
2021/01/11 03:24:12;;;;;;;44.37;15.93;;;7.50;99.90;;;;;;5022266;28;20202;-93
2021/01/11 03:26:44;;;;;;;9.03;4.30;;;7.50;99.90;;;;;;5021697;28;20213;-93
2021/01/11 03:29:15;;;;;;;3.57;3.10;;;7.50;99.90;;;;;;5032210;28;20185;-93
2021/01/11 03:39:38;;;;;;;9.50;5.17;;;7.60;99.90;;;;;;5033920;28;20248;-96
2021/01/11 03:42:10;;;;;;;40.20;15.20;;;7.60;99.90;;;;;;5047984;28;20237;-96
2021/01/11 19:28:08;;;;;;;3.60;1.23;;;7.00;99.90;;;;;;5263234;23;20867;-95
2021/01/11 19:30:39;;;;;;;2.80;1.30;;;7.00;99.90;;;;;;4869366;29;20632;-95
2021/01/11 19:33:12;;;;;;;4.30;0.93;;;7.00;99.90;;;;;;4867097;29;20347;-94
2021/01/11 19:35:43;;;;;;;2.13;1.60;;;7.10;99.90;;;;;;4866675;29;20251;-95
2021/01/11 19:38:14;;;;;;;7.10;1.10;;;7.20;99.90;;;;;;4852338;29;20344;-95
2021/01/11 19:40:46;;;;;;;1.43;0.70;;;7.20;99.90;;;;;;4873270;29;20226;-96
2021/01/11 19:43:20;;;;;;;6.33;1.20;;;7.20;99.90;;;;;;4839057;29;20645;-96
2021/01/11 19:45:54;;;;;;;3.07;1.10;;;7.20;99.90;;;;;;4846642;29;20211;-96
2021/01/11 19:48:26;;;;;;;4.07;1.00;;;7.20;99.90;;;;;;4833454;29;20199;-96
2021/01/11 19:50:57;;;;;;;6.20;1.33;;;7.20;99.90;;;;;;4848602;29;20941;-96
2021/01/11 19:53:27;;;;;;;3.83;1.10;;;7.30;99.90;;;;;;4851926;29;20226;-96
2021/01/11 19:55:58;;;;;;;4.50;1.03;;;7.40;99.90;;;;;;4847202;29;20234;-96
2021/01/11 19:58:31;;;;;;;2.67;1.17;;;7.30;99.90;;;;;;4865312;29;20198;-96
2021/01/11 20:01:04;;;;;;;2.33;1.10;;;7.30;99.90;;;;;;4866188;29;20220;-96
2021/01/11 20:03:35;;;;;;;1.70;0.90;;;7.40;99.90;;;;;;4863217;29;20196;-96
2021/01/11 20:14:03;;;;;;;0.83;0.60;;;7.30;99.90;;;;;;4882581;29;20258;-96
2021/01/11 20:16:35;;;;;;;2.70;0.50;;;7.30;99.90;;;;;;4883515;29;20221;-96
2021/01/11 20:19:09;;;;;;;0.63;0.57;;;7.40;99.90;;;;;;4882951;29;20221;-95
2021/01/11 20:21:45;;;;;;;0.57;0.40;;;7.40;99.90;;;;;;4884122;29;20281;-95
2021/01/11 20:24:17;;;;;;;1.17;0.50;;;7.40;99.90;;;;;;4884682;29;20732;-95
2021/01/11 20:26:50;;;;;;;0.33;0.20;;;7.30;99.90;;;;;;4894842;29;20214;-94
2021/01/11 20:29:23;;;;;;;1.23;0.37;;;7.30;99.90;;;;;;4886414;29;20271;-94
2021/01/11 20:31:53;;;;;;;1.47;0.40;;;7.30;99.90;;;;;;4885609;29;20201;-96
2021/01/11 20:34:25;;;;;;;2.63;0.30;;;7.30;99.90;;;;;;4883596;29;20207;-96
2021/01/11 20:36:56;;;;;;;0.23;0.20;;;7.30;99.90;;;;;;4878843;29;20239;-96
2021/01/11 20:39:27;;;;;;;0.27;0.13;;;7.30;99.90;;;;;;4865592;29;20297;-95
2021/01/11 20:41:59;;;;;;;1.07;0.37;;;7.30;99.90;;;;;;4862376;29;20212;-96
2021/01/11 20:44:31;;;;;;;1.27;0.50;;;7.30;99.90;;;;;;4866102;29;20238;-92
2021/01/11 20:47:03;;;;;;;0.60;0.30;;;7.30;99.90;;;;;;4865345;29;20281;-96
2021/01/11 20:49:39;;;;;;;0.77;0.30;;;7.30;99.90;;;;;;4861652;29;20233;-96
2021/01/11 20:54:55;;;;;;;0.73;0.40;;;7.20;99.90;;;;;;4945173;23;20257;-96
2021/01/11 21:18:54;;;;;;;3.90;0.43;;;7.70;99.90;;;;;;4854460;29;20231;-96
2021/01/11 21:21:27;;;;;;;1.13;0.20;;;7.80;99.90;;;;;;4854424;29;20226;-96
2021/01/11 21:27:06;;;;;;;1.57;0.37;;;7.90;99.90;;;;;;4854685;29;20214;-96
2021/01/11 21:40:32;;;;;;;0.73;0.40;;;8.10;99.90;;;;;;4980092;23;20319;-96
2021/01/11 21:43:03;;;;;;;1.90;0.40;;;8.10;99.90;;;;;;4861427;29;20209;-96
2021/01/11 21:48:20;;;;;;;0.33;0.30;;;8.00;99.90;;;;;;4913121;23;20273;-96
2021/01/11 21:50:53;;;;;;;0.83;0.30;;;8.00;99.90;;;;;;4874115;29;20250;-96
2021/01/11 21:53:25;;;;;;;0.30;0.20;;;8.00;99.90;;;;;;4873494;29;20269;-96
2021/01/11 21:56:02;;;;;;;0.27;0.17;;;8.00;99.90;;;;;;4871007;29;20224;-96
2021/01/11 21:58:35;;;;;;;0.47;0.30;;;7.90;99.90;;;;;;4872200;29;20256;-96
2021/01/11 22:01:11;;;;;;;0.57;0.23;;;8.00;99.90;;;;;;4880302;29;20651;-96
2021/01/11 22:03:47;;;;;;;1.40;0.30;;;8.10;99.90;;;;;;4878750;29;20221;-96
2021/01/11 22:06:19;;;;;;;1.00;0.50;;;8.10;99.90;;;;;;4878095;29;20317;-96
2021/01/11 22:08:51;;;;;;;0.20;0.20;;;8.10;99.90;;;;;;4876621;29;20195;-96
2021/01/11 22:11:26;;;;;;;0.20;0.20;;;8.10;99.90;;;;;;4873938;29;20218;-96
2021/01/11 22:13:58;;;;;;;0.60;0.30;;;8.20;99.90;;;;;;4860736;29;20207;-96
2021/01/11 22:27:11;;;;;;;0.30;0.30;;;8.20;99.90;;;;;;4853297;29;20222;-96
2021/01/11 22:29:46;;;;;;;0.30;0.30;;;8.10;99.90;;;;;;4851663;29;20305;-96
2021/01/11 22:32:24;;;;;;;0.33;0.30;;;8.10;99.90;;;;;;4921400;23;20417;-96
2021/01/11 22:37:30;;;;;;;0.30;0.20;;;8.20;99.90;;;;;;4882946;23;20621;-96
2021/01/11 22:40:02;;;;;;;0.20;0.20;;;8.10;99.90;;;;;;4866966;29;20235;-95
2021/01/11 22:42:34;;;;;;;0.10;0.10;;;8.00;99.90;;;;;;4870376;29;20612;-96
2021/01/11 22:45:06;;;;;;;0.53;0.20;;;8.10;99.90;;;;;;4866693;29;20211;-96
2021/01/11 22:47:39;;;;;;;0.83;0.40;;;8.10;99.90;;;;;;4866727;29;20269;-92
2021/01/11 22:50:11;;;;;;;0.37;0.17;;;8.00;99.90;;;;;;4862707;29;20218;-92
2021/01/11 22:52:42;;;;;;;0.20;0.20;;;8.10;99.90;;;;;;4867285;29;20214;-92
2021/01/11 22:55:20;;;;;;;0.20;0.20;;;8.10;99.90;;;;;;4849423;29;20223;-92
2021/01/11 22:57:53;;;;;;;0.17;0.17;;;8.10;99.90;;;;;;4853497;29;20380;-92
2021/01/11 23:00:25;;;;;;;0.93;0.30;;;8.10;99.90;;;;;;4852678;29;20282;-93
2021/01/11 23:02:55;;;;;;;0.20;0.20;;;8.00;99.90;;;;;;4866483;29;20210;-92
2021/01/11 23:05:26;;;;;;;0.50;0.40;;;8.00;99.90;;;;;;4868312;29;20219;-92
2021/01/11 23:07:57;;;;;;;0.90;0.50;;;8.00;99.90;;;;;;4866219;29;20224;-92
2021/01/11 23:10:31;;;;;;;1.07;0.40;;;8.00;99.90;;;;;;4868067;29;20270;-95
2021/01/11 23:13:03;;;;;;;0.63;0.33;;;8.00;99.90;;;;;;4867062;29;20659;-96
2021/01/11 23:15:35;;;;;;;0.70;0.33;;;8.00;99.90;;;;;;4866922;29;20199;-94
2021/01/11 23:18:06;;;;;;;1.37;0.40;;;8.10;99.90;;;;;;4868091;29;20242;-96
2021/01/11 23:20:39;;;;;;;1.10;0.40;;;8.10;99.90;;;;;;4872808;29;20246;-96
2021/01/11 23:23:11;;;;;;;0.40;0.30;;;8.10;99.90;;;;;;4873617;29;20191;-94
2021/01/11 23:25:44;;;;;;;0.40;0.40;;;8.00;99.90;;;;;;4878012;29;20213;-94
2021/01/11 23:28:20;;;;;;;1.03;0.30;;;7.90;99.90;;;;;;4880709;29;20262;-92
2021/01/11 23:30:53;;;;;;;0.50;0.30;;;7.90;99.90;;;;;;4883514;29;20262;-93
2021/01/11 23:33:27;;;;;;;0.30;0.20;;;7.90;99.90;;;;;;4878891;29;20214;-96
2021/01/11 23:36:01;;;;;;;0.20;0.20;;;7.90;99.90;;;;;;4875198;29;20275;-94
2021/01/11 23:38:31;;;;;;;1.23;0.33;;;7.90;99.90;;;;;;4867363;29;20207;-95
2021/01/11 23:41:03;;;;;;;1.57;0.70;;;7.90;99.90;;;;;;4869818;29;20230;-95
2021/01/11 23:43:36;;;;;;;2.87;0.40;;;7.90;99.90;;;;;;4872266;29;20238;-94
2021/01/11 23:46:07;;;;;;;1.13;0.30;;;8.00;99.90;;;;;;4869373;29;20210;-93
2021/01/11 23:48:38;;;;;;;0.77;0.20;;;8.00;99.90;;;;;;4851389;29;20223;-92
2021/01/11 23:51:09;;;;;;;2.00;0.60;;;8.00;99.90;;;;;;4857002;29;20210;-92
2021/01/11 23:53:43;;;;;;;0.40;0.30;;;8.00;99.90;;;;;;4884862;29;20206;-91
2021/01/11 23:56:14;;;;;;;0.40;0.30;;;8.00;99.90;;;;;;4872502;29;20216;-92
2021/01/11 23:58:46;;;;;;;1.70;0.43;;;8.00;99.90;;;;;;4867327;29;20271;-93
